PWSweather.com
Personal Weather Stations
Station Observations
KAZSIERR7
Canyon De Flores, Sierra Vista, AZ 85650

Canyon De FloresSierra Vista, AZ 85650

Lat: 31.5, Lon: -110.26

Elevation: 4645

Station Type: LaCrosse WS-3610 & Boltek Lightning Detector

http://www.lightningring.com/weather/

High Low Average
Temperature 85.1°F29.5°C 50.8°F10.4°C 75.6°F24.2°C
Dew Point 30.3°F-0.9°C 15.5°F-9.2°C 21.0°F-6.1°C
Winds 10.3 mph 16.6 kmh Calm Calm 3.0 mph SSW4.8 kmh SSW
Wind Gusts 59.8 mph96.2 kmh -- 20.0 mph32.2 kmh
Humidity 39% 8% 15%
Pressure 30.01 in1016.3 mb 29.91 in1012.9 mb -
Precipitation 0.00 in0.0 mm - -
Hour Temp Dew Point Humidity Winds Wind Gusts Pressure Precip Precip Rate Daily Precip Total
12:20 AM 63.1°F17.3°C 26.6°F-3.0°C 25% Calm Calm 3.0 mph4.8 kmh 30.01 in1016.3 mb 0.00 in0.0 mm 0.00 in/hr0.0 mm/hr 0.00 in0.0 mm
12:52 AM 60.9°F16.1°C 25.6°F-3.6°C 26% Calm Calm 0.8 mph1.3 kmh 30.00 in1015.9 mb 0.00 in0.0 mm 0.00 in/hr0.0 mm/hr 0.00 in0.0 mm
01:23 AM 58.2°F14.6°C 25.0°F-3.9°C 28% Calm Calm -- 29.99 in1015.6 mb 0.00 in0.0 mm 0.00 in/hr0.0 mm/hr 0.00 in0.0 mm
01:54 AM 55.3°F12.9°C 24.9°F-3.9°C 31% Calm Calm -- 29.99 in1015.6 mb 0.00 in0.0 mm 0.00 in/hr0.0 mm/hr 0.00 in0.0 mm
02:36 AM 53.2°F11.8°C 24.6°F-4.1°C 33% Calm Calm -- 30.00 in1015.9 mb 0.00 in0.0 mm 0.00 in/hr0.0 mm/hr 0.00 in0.0 mm
03:29 AM 52.3°F11.3°C 25.2°F-3.8°C 35% Calm Calm -- 30.00 in1015.9 mb 0.00 in0.0 mm 0.00 in/hr0.0 mm/hr 0.00 in0.0 mm
04:11 AM 51.0°F10.6°C 26.1°F-3.3°C 38% Calm Calm -- 29.99 in1015.6 mb 0.00 in0.0 mm 0.00 in/hr0.0 mm/hr 0.00 in0.0 mm
04:21 AM 50.8°F10.4°C 26.5°F-3.1°C 39% Calm Calm -- 29.99 in1015.6 mb 0.00 in0.0 mm 0.00 in/hr0.0 mm/hr 0.00 in0.0 mm
04:32 AM 50.8°F10.4°C 26.5°F-3.1°C 39% Calm Calm -- 29.99 in1015.6 mb 0.00 in0.0 mm 0.00 in/hr0.0 mm/hr 0.00 in0.0 mm
05:56 AM 50.8°F10.4°C 26.5°F-3.1°C 39% Calm Calm -- 30.00 in1015.9 mb 0.00 in0.0 mm 0.00 in/hr0.0 mm/hr 0.00 in0.0 mm
06:38 AM 61.8°F16.6°C 29.0°F-1.7°C 29% Calm Calm -- 30.00 in1015.9 mb 0.00 in0.0 mm 0.00 in/hr0.0 mm/hr 0.00 in0.0 mm
07:41 AM 80.7°F27.1°C 30.3°F-0.9°C 16% Calm Calm -- 30.01 in1016.3 mb 0.00 in0.0 mm 0.00 in/hr0.0 mm/hr 0.00 in0.0 mm
10:32 AM 75.5°F24.2°C 19.1°F-7.2°C 12% 3.9 mph SSE6.3 kmh SSE 5.2 mph8.4 kmh 30.01 in1016.3 mb 0.00 in0.0 mm 0.00 in/hr0.0 mm/hr 0.00 in0.0 mm
10:42 AM 75.4°F24.1°C 24.5°F-4.2°C 15% 3.7 mph E6.0 kmh E 54.0 mph86.9 kmh 30.01 in1016.3 mb 0.00 in0.0 mm 0.00 in/hr0.0 mm/hr 0.00 in0.0 mm
10:53 AM 78.2°F25.7°C 23.2°F-4.9°C 13% Calm Calm 6.2 mph10.0 kmh 30.01 in1016.3 mb 0.00 in0.0 mm 0.00 in/hr0.0 mm/hr 0.00 in0.0 mm
11:03 AM 79.4°F26.3°C 20.1°F-6.6°C 11% 3.3 mph ENE5.3 kmh ENE 7.6 mph12.2 kmh 30.00 in1015.9 mb 0.00 in0.0 mm 0.00 in/hr0.0 mm/hr 0.00 in0.0 mm
11:14 AM 77.1°F25.1°C 20.4°F-6.4°C 12% 6.9 mph ESE11.1 kmh ESE 9.2 mph14.8 kmh 29.99 in1015.6 mb 0.00 in0.0 mm 0.00 in/hr0.0 mm/hr 0.00 in0.0 mm
11:24 AM 77.9°F25.5°C 23.0°F-5.0°C 13% 2.8 mph SE4.5 kmh SE 29.4 mph47.3 kmh 29.99 in1015.6 mb 0.00 in0.0 mm 0.00 in/hr0.0 mm/hr 0.00 in0.0 mm
11:35 AM 77.0°F25.0°C 18.2°F-7.7°C 11% 6.4 mph SE10.3 kmh SE 8.8 mph14.2 kmh 29.99 in1015.6 mb 0.00 in0.0 mm 0.00 in/hr0.0 mm/hr 0.00 in0.0 mm
11:45 AM 75.8°F24.3°C 17.3°F-8.2°C 11% 10.3 mph SE16.6 kmh SE 38.0 mph61.2 kmh 29.98 in1015.2 mb 0.00 in0.0 mm 0.00 in/hr0.0 mm/hr 0.00 in0.0 mm
11:56 AM 79.8°F26.6°C 20.3°F-6.5°C 11% 3.0 mph NE4.8 kmh NE 47.8 mph76.9 kmh 29.98 in1015.2 mb 0.00 in0.0 mm 0.00 in/hr0.0 mm/hr 0.00 in0.0 mm
12:06 PM 79.7°F26.5°C 18.0°F-7.8°C 10% 2.3 mph NE3.7 kmh NE 4.0 mph6.4 kmh 29.97 in1014.9 mb 0.00 in0.0 mm 0.00 in/hr0.0 mm/hr 0.00 in0.0 mm
12:17 PM 77.5°F25.3°C 18.6°F-7.4°C 11% 3.9 mph SE6.3 kmh SE 5.8 mph9.3 kmh 29.97 in1014.9 mb 0.00 in0.0 mm 0.00 in/hr0.0 mm/hr 0.00 in0.0 mm
12:27 PM 80.1°F26.7°C 18.3°F-7.6°C 10% 0.6 mph S1.0 kmh S 8.8 mph14.2 kmh 29.97 in1014.9 mb 0.00 in0.0 mm 0.00 in/hr0.0 mm/hr 0.00 in0.0 mm
12:38 PM 82.8°F28.2°C 22.7°F-5.2°C 11% 2.2 mph WSW3.5 kmh WSW 5.8 mph9.3 kmh 29.96 in1014.6 mb 0.00 in0.0 mm 0.00 in/hr0.0 mm/hr 0.00 in0.0 mm
12:48 PM 83.4°F28.6°C 20.8°F-6.2°C 10% 2.8 mph WSW4.5 kmh WSW 4.0 mph6.4 kmh 29.97 in1014.9 mb 0.00 in0.0 mm 0.00 in/hr0.0 mm/hr 0.00 in0.0 mm
12:59 PM 83.2°F28.4°C 18.1°F-7.7°C 9% Calm Calm 41.0 mph66.0 kmh 29.96 in1014.6 mb 0.00 in0.0 mm 0.00 in/hr0.0 mm/hr 0.00 in0.0 mm
01:09 PM 83.9°F28.8°C 18.7°F-7.4°C 9% 4.4 mph WNW7.1 kmh WNW 38.0 mph61.2 kmh 29.96 in1014.6 mb 0.00 in0.0 mm 0.00 in/hr0.0 mm/hr 0.00 in0.0 mm
01:20 PM 82.7°F28.2°C 22.6°F-5.2°C 11% 4.0 mph WSW6.4 kmh WSW 8.0 mph12.9 kmh 29.96 in1014.6 mb 0.00 in0.0 mm 0.00 in/hr0.0 mm/hr 0.00 in0.0 mm
01:30 PM 84.3°F29.1°C 19.0°F-7.2°C 9% Calm Calm -- 29.96 in1014.6 mb 0.00 in0.0 mm 0.00 in/hr0.0 mm/hr 0.00 in0.0 mm
01:41 PM 83.3°F28.5°C 18.2°F-7.7°C 9% 5.1 mph SW8.2 kmh SW 46.8 mph75.3 kmh 29.95 in1014.2 mb 0.00 in0.0 mm 0.00 in/hr0.0 mm/hr 0.00 in0.0 mm
01:51 PM 83.7°F28.7°C 18.5°F-7.5°C 9% 5.6 mph SW9.0 kmh SW 59.8 mph96.2 kmh 29.95 in1014.2 mb 0.00 in0.0 mm 0.00 in/hr0.0 mm/hr 0.00 in0.0 mm
02:02 PM 84.9°F29.4°C 19.5°F-6.9°C 9% 4.5 mph WNW7.2 kmh WNW 6.2 mph10.0 kmh 29.94 in1013.9 mb 0.00 in0.0 mm 0.00 in/hr0.0 mm/hr 0.00 in0.0 mm
02:12 PM 85.0°F29.4°C 19.5°F-6.9°C 9% 2.3 mph WSW3.7 kmh WSW 4.8 mph7.7 kmh 29.94 in1013.9 mb 0.00 in0.0 mm 0.00 in/hr0.0 mm/hr 0.00 in0.0 mm
02:23 PM 83.7°F28.7°C 15.7°F-9.1°C 8% 5.6 mph SW9.0 kmh SW 44.2 mph71.1 kmh 29.94 in1013.9 mb 0.00 in0.0 mm 0.00 in/hr0.0 mm/hr 0.00 in0.0 mm
02:33 PM 83.0°F28.3°C 20.5°F-6.4°C 10% 3.2 mph WSW5.1 kmh WSW 42.8 mph68.9 kmh 29.93 in1013.5 mb 0.00 in0.0 mm 0.00 in/hr0.0 mm/hr 0.00 in0.0 mm
02:44 PM 85.0°F29.4°C 22.0°F-5.6°C 10% 5.4 mph W8.7 kmh W 46.0 mph74.0 kmh 29.93 in1013.5 mb 0.00 in0.0 mm 0.00 in/hr0.0 mm/hr 0.00 in0.0 mm
02:54 PM 84.4°F29.1°C 19.0°F-7.2°C 9% 4.6 mph NW7.4 kmh NW 7.6 mph12.2 kmh 29.92 in1013.2 mb 0.00 in0.0 mm 0.00 in/hr0.0 mm/hr 0.00 in0.0 mm
03:05 PM 85.1°F29.5°C 22.1°F-5.5°C 10% 1.9 mph WSW3.1 kmh WSW 7.6 mph12.2 kmh 29.92 in1013.2 mb 0.00 in0.0 mm 0.00 in/hr0.0 mm/hr 0.00 in0.0 mm
03:15 PM 84.6°F29.2°C 19.2°F-7.1°C 9% 7.4 mph W11.9 kmh W 51.4 mph82.7 kmh 29.91 in1012.9 mb 0.00 in0.0 mm 0.00 in/hr0.0 mm/hr 0.00 in0.0 mm
03:26 PM 84.9°F29.4°C 16.6°F-8.6°C 8% 1.9 mph W3.1 kmh W 7.6 mph12.2 kmh 29.91 in1012.9 mb 0.00 in0.0 mm 0.00 in/hr0.0 mm/hr 0.00 in0.0 mm
03:36 PM 83.7°F28.7°C 15.8°F-9.0°C 8% 6.1 mph WNW9.8 kmh WNW 51.4 mph82.7 kmh 29.91 in1012.9 mb 0.00 in0.0 mm 0.00 in/hr0.0 mm/hr 0.00 in0.0 mm
03:47 PM 83.8°F28.8°C 15.9°F-8.9°C 8% 6.1 mph WNW9.8 kmh WNW 38.0 mph61.2 kmh 29.91 in1012.9 mb 0.00 in0.0 mm 0.00 in/hr0.0 mm/hr 0.00 in0.0 mm
03:57 PM 83.9°F28.8°C 18.7°F-7.4°C 9% 5.1 mph W8.2 kmh W 52.2 mph84.0 kmh 29.91 in1012.9 mb 0.00 in0.0 mm 0.00 in/hr0.0 mm/hr 0.00 in0.0 mm
04:08 PM 83.4°F28.6°C 15.5°F-9.2°C 8% 4.1 mph NW6.6 kmh NW 37.4 mph60.2 kmh 29.91 in1012.9 mb 0.00 in0.0 mm 0.00 in/hr0.0 mm/hr 0.00 in0.0 mm
04:18 PM 83.7°F28.7°C 15.8°F-9.0°C 8% 2.4 mph WNW3.9 kmh WNW 34.4 mph55.4 kmh 29.91 in1012.9 mb 0.00 in0.0 mm 0.00 in/hr0.0 mm/hr 0.00 in0.0 mm
04:29 PM 83.5°F28.6°C 15.6°F-9.1°C 8% 6.8 mph WSW10.9 kmh WSW 57.6 mph92.7 kmh 29.91 in1012.9 mb 0.00 in0.0 mm 0.00 in/hr0.0 mm/hr 0.00 in0.0 mm
04:39 PM 83.6°F28.7°C 15.7°F-9.1°C 8% 10.4 mph NW16.7 kmh NW 35.2 mph56.6 kmh 29.91 in1012.9 mb 0.00 in0.0 mm 0.00 in/hr0.0 mm/hr 0.00 in0.0 mm
04:50 PM 82.8°F28.2°C 17.8°F-7.9°C 9% 6.3 mph W10.1 kmh W 54.0 mph86.9 kmh 29.91 in1012.9 mb 0.00 in0.0 mm 0.00 in/hr0.0 mm/hr 0.00 in0.0 mm
05:00 PM 82.7°F28.2°C 17.8°F-7.9°C 9% 4.6 mph WSW7.4 kmh WSW 54.0 mph86.9 kmh 29.91 in1012.9 mb 0.00 in0.0 mm 0.00 in/hr0.0 mm/hr 0.00 in0.0 mm
05:11 PM 82.2°F27.9°C 17.4°F-8.1°C 9% 3.3 mph W5.3 kmh W 41.0 mph66.0 kmh 29.91 in1012.9 mb 0.00 in0.0 mm 0.00 in/hr0.0 mm/hr 0.00 in0.0 mm
05:21 PM 82.4°F28.0°C 17.6°F-8.0°C 9% 0.4 mph WSW0.6 kmh WSW 48.6 mph78.2 kmh 29.91 in1012.9 mb 0.00 in0.0 mm 0.00 in/hr0.0 mm/hr 0.00 in0.0 mm
05:32 PM 81.4°F27.4°C 16.8°F-8.4°C 9% 3.3 mph W5.3 kmh W 51.8 mph83.4 kmh 29.91 in1012.9 mb 0.00 in0.0 mm 0.00 in/hr0.0 mm/hr 0.00 in0.0 mm
05:42 PM 81.0°F27.2°C 16.5°F-8.6°C 9% 1.7 mph WSW2.7 kmh WSW 7.6 mph12.2 kmh 29.91 in1012.9 mb 0.00 in0.0 mm 0.00 in/hr0.0 mm/hr 0.00 in0.0 mm
05:53 PM 80.1°F26.7°C 18.3°F-7.6°C 10% Calm Calm 7.0 mph11.3 kmh 29.91 in1012.9 mb 0.00 in0.0 mm 0.00 in/hr0.0 mm/hr 0.00 in0.0 mm
06:03 PM 80.1°F26.7°C 18.3°F-7.6°C 10% 1.9 mph WNW3.1 kmh WNW 8.0 mph12.9 kmh 29.92 in1013.2 mb 0.00 in0.0 mm 0.00 in/hr0.0 mm/hr 0.00 in0.0 mm
06:13 PM 78.7°F25.9°C 19.5°F-6.9°C 11% 2.3 mph W3.7 kmh W 6.6 mph10.6 kmh 29.92 in1013.2 mb 0.00 in0.0 mm 0.00 in/hr0.0 mm/hr 0.00 in0.0 mm
06:24 PM 77.4°F25.2°C 18.5°F-7.5°C 11% 3.4 mph WNW5.5 kmh WNW 12.8 mph20.6 kmh 29.93 in1013.5 mb 0.00 in0.0 mm 0.00 in/hr0.0 mm/hr 0.00 in0.0 mm
06:34 PM 75.3°F24.1°C 18.9°F-7.3°C 12% 2.6 mph WSW4.2 kmh WSW 5.8 mph9.3 kmh 29.93 in1013.5 mb 0.00 in0.0 mm 0.00 in/hr0.0 mm/hr 0.00 in0.0 mm
06:45 PM 73.8°F23.2°C 19.8°F-6.8°C 13% 3.0 mph W4.8 kmh W 4.0 mph6.4 kmh 29.92 in1013.2 mb 0.00 in0.0 mm 0.00 in/hr0.0 mm/hr 0.00 in0.0 mm
06:55 PM 73.2°F22.9°C 21.1°F-6.1°C 14% 2.6 mph WNW4.2 kmh WNW 5.2 mph8.4 kmh 29.93 in1013.5 mb 0.00 in0.0 mm 0.00 in/hr0.0 mm/hr 0.00 in0.0 mm
07:06 PM 72.6°F22.6°C 22.2°F-5.4°C 15% 0.6 mph WSW1.0 kmh WSW 3.4 mph5.5 kmh 29.93 in1013.5 mb 0.00 in0.0 mm 0.00 in/hr0.0 mm/hr 0.00 in0.0 mm
07:16 PM 71.7°F22.1°C 21.5°F-5.8°C 15% 0.7 mph WSW1.1 kmh WSW 3.4 mph5.5 kmh 29.93 in1013.5 mb 0.00 in0.0 mm 0.00 in/hr0.0 mm/hr 0.00 in0.0 mm
07:27 PM 71.0°F21.7°C 22.5°F-5.3°C 16% 0.9 mph WNW1.4 kmh WNW 4.0 mph6.4 kmh 29.93 in1013.5 mb 0.00 in0.0 mm 0.00 in/hr0.0 mm/hr 0.00 in0.0 mm
07:37 PM 70.5°F21.4°C 22.1°F-5.5°C 16% Calm Calm 1.2 mph1.9 kmh 29.93 in1013.5 mb 0.00 in0.0 mm 0.00 in/hr0.0 mm/hr 0.00 in0.0 mm
07:48 PM 69.7°F20.9°C 22.9°F-5.1°C 17% Calm Calm -- 29.94 in1013.9 mb 0.00 in0.0 mm 0.00 in/hr0.0 mm/hr 0.00 in0.0 mm
07:58 PM 69.2°F20.7°C 23.8°F-4.6°C 18% Calm Calm -- 29.95 in1014.2 mb 0.00 in0.0 mm 0.00 in/hr0.0 mm/hr 0.00 in0.0 mm
08:09 PM 68.7°F20.4°C 23.4°F-4.8°C 18% Calm Calm -- 29.95 in1014.2 mb 0.00 in0.0 mm 0.00 in/hr0.0 mm/hr 0.00 in0.0 mm
08:19 PM 67.8°F19.9°C 22.7°F-5.2°C 18% Calm Calm -- 29.95 in1014.2 mb 0.00 in0.0 mm 0.00 in/hr0.0 mm/hr 0.00 in0.0 mm
08:30 PM 67.2°F19.6°C 23.5°F-4.7°C 19% Calm Calm -- 29.95 in1014.2 mb 0.00 in0.0 mm 0.00 in/hr0.0 mm/hr 0.00 in0.0 mm
08:40 PM 66.9°F19.4°C 23.2°F-4.9°C 19% Calm Calm -- 29.95 in1014.2 mb 0.00 in0.0 mm 0.00 in/hr0.0 mm/hr 0.00 in0.0 mm
08:51 PM 67.0°F19.4°C 23.3°F-4.8°C 19% Calm Calm -- 29.96 in1014.6 mb 0.00 in0.0 mm 0.00 in/hr0.0 mm/hr 0.00 in0.0 mm
09:01 PM 66.7°F19.3°C 23.1°F-4.9°C 19% Calm Calm -- 29.96 in1014.6 mb 0.00 in0.0 mm 0.00 in/hr0.0 mm/hr 0.00 in0.0 mm
09:12 PM 66.1°F18.9°C 22.6°F-5.2°C 19% Calm Calm -- 29.96 in1014.6 mb 0.00 in0.0 mm 0.00 in/hr0.0 mm/hr 0.00 in0.0 mm
09:22 PM 67.0°F19.4°C 24.5°F-4.2°C 20% 1.2 mph W1.9 kmh W 1.6 mph2.6 kmh 29.96 in1014.6 mb 0.00 in0.0 mm 0.00 in/hr0.0 mm/hr 0.00 in0.0 mm
09:33 PM 65.8°F18.8°C 22.3°F-5.4°C 19% 1.2 mph NNW1.9 kmh NNW 4.0 mph6.4 kmh 29.96 in1014.6 mb 0.00 in0.0 mm 0.00 in/hr0.0 mm/hr 0.00 in0.0 mm
09:43 PM 65.2°F18.4°C 23.0°F-5.0°C 20% 0.9 mph WNW1.4 kmh WNW 1.6 mph2.6 kmh 29.96 in1014.6 mb 0.00 in0.0 mm 0.00 in/hr0.0 mm/hr 0.00 in0.0 mm
09:54 PM 64.0°F17.8°C 22.0°F-5.6°C 20% 2.3 mph WNW3.7 kmh WNW 3.0 mph4.8 kmh 29.96 in1014.6 mb 0.00 in0.0 mm 0.00 in/hr0.0 mm/hr 0.00 in0.0 mm
10:04 PM 63.6°F17.6°C 24.0°F-4.4°C 22% Calm Calm -- 29.96 in1014.6 mb 0.00 in0.0 mm 0.00 in/hr0.0 mm/hr 0.00 in0.0 mm
10:15 PM 64.3°F17.9°C 25.6°F-3.6°C 23% 4.4 mph WNW7.1 kmh WNW 5.8 mph9.3 kmh 29.96 in1014.6 mb 0.00 in0.0 mm 0.00 in/hr0.0 mm/hr 0.00 in0.0 mm
10:25 PM 64.3°F17.9°C 24.5°F-4.2°C 22% Calm Calm -- 29.96 in1014.6 mb 0.00 in0.0 mm 0.00 in/hr0.0 mm/hr 0.00 in0.0 mm
10:36 PM 65.1°F18.4°C 26.3°F-3.2°C 23% 0.6 mph WNW1.0 kmh WNW 52.6 mph84.7 kmh 29.96 in1014.6 mb 0.00 in0.0 mm 0.00 in/hr0.0 mm/hr 0.00 in0.0 mm
10:46 PM 64.0°F17.8°C 26.3°F-3.2°C 24% Calm Calm -- 29.96 in1014.6 mb 0.00 in0.0 mm 0.00 in/hr0.0 mm/hr 0.00 in0.0 mm
10:57 PM 62.7°F17.1°C 26.2°F-3.2°C 25% Calm Calm -- 29.96 in1014.6 mb 0.00 in0.0 mm 0.00 in/hr0.0 mm/hr 0.00 in0.0 mm
11:07 PM 62.5°F16.9°C 27.9°F-2.3°C 27% Calm Calm -- 29.96 in1014.6 mb 0.00 in0.0 mm 0.00 in/hr0.0 mm/hr 0.00 in0.0 mm
11:18 PM 62.2°F16.8°C 27.6°F-2.4°C 27% Calm Calm -- 29.97 in1014.9 mb 0.00 in0.0 mm 0.00 in/hr0.0 mm/hr 0.00 in0.0 mm
11:28 PM 61.6°F16.4°C 28.0°F-2.2°C 28% Calm Calm -- 29.96 in1014.6 mb 0.00 in0.0 mm 0.00 in/hr0.0 mm/hr 0.00 in0.0 mm
11:39 PM 60.9°F16.1°C 29.0°F-1.7°C 30% Calm Calm -- 29.96 in1014.6 mb 0.00 in0.0 mm 0.00 in/hr0.0 mm/hr 0.00 in0.0 mm
11:49 PM 61.3°F16.3°C 29.4°F-1.4°C 30% Calm Calm -- 29.96 in1014.6 mb 0.00 in0.0 mm 0.00 in/hr0.0 mm/hr 0.00 in0.0 mm